Time;durP1;ratioP1;P1;durP2;ratioP2;P2;SDS_P1;SDS_P2;PMS_P1;PMS_P2;Temp;Humidity;BMP_temperature;BMP_pressure;BME280_temperature;BME280_humidity;BME280_pressure;Samples;Min_cycle;Max_cycle;Signal;HPM_P1;HPM_P2
2023/01/21 00:00:05;;;;;;;44.70;18.55;;;;;;;;;;5032648;28;20060;-68
2023/01/21 00:02:31;;;;;;;35.78;17.88;;;;;;;;;;5032639;28;20041;-68
2023/01/21 00:04:57;;;;;;;41.22;19.00;;;;;;;;;;5032552;28;20040;-68
2023/01/21 00:07:24;;;;;;;44.03;20.42;;;;;;;;;;5032325;28;20033;-68
2023/01/21 00:09:50;;;;;;;44.65;19.33;;;;;;;;;;5016390;28;20041;-68
2023/01/21 00:12:16;;;;;;;43.67;19.45;;;;;;;;;;5032612;28;20430;-68
2023/01/21 00:14:43;;;;;;;45.70;20.15;;;;;;;;;;5032213;28;20037;-68
2023/01/21 00:17:09;;;;;;;45.25;20.30;;;;;;;;;;5016083;28;20131;-68
2023/01/21 00:19:35;;;;;;;42.72;19.45;;;;;;;;;;5032670;28;20491;-68
2023/01/21 00:22:01;;;;;;;45.40;19.23;;;;;;;;;;5032389;28;20507;-68
2023/01/21 00:24:27;;;;;;;45.63;19.95;;;;;;;;;;5032284;28;20052;-68
2023/01/21 00:26:53;;;;;;;43.65;19.23;;;;;;;;;;5032352;28;20041;-68
2023/01/21 00:29:20;;;;;;;43.50;19.40;;;;;;;;;;5032137;28;20037;-68
2023/01/21 00:31:46;;;;;;;48.50;19.08;;;;;;;;;;5032394;28;20369;-68
2023/01/21 00:34:13;;;;;;;48.95;19.65;;;;;;;;;;5032194;28;20036;-68
2023/01/21 00:36:39;;;;;;;43.65;19.13;;;;;;;;;;5031980;28;20124;-68
2023/01/21 00:39:06;;;;;;;41.33;19.13;;;;;;;;;;5032293;28;20036;-68
2023/01/21 00:41:32;;;;;;;46.85;20.27;;;;;;;;;;5032502;28;20518;-68
2023/01/21 00:43:58;;;;;;;45.45;20.50;;;;;;;;;;5031830;28;20048;-68
2023/01/21 00:46:24;;;;;;;43.38;20.38;;;;;;;;;;5032396;28;20480;-68
2023/01/21 00:48:51;;;;;;;47.90;20.75;;;;;;;;;;5032218;28;20462;-68
2023/01/21 00:51:17;;;;;;;46.13;19.77;;;;;;;;;;5031867;28;20041;-68
2023/01/21 00:53:43;;;;;;;49.22;21.67;;;;;;;;;;5032097;28;20098;-68
2023/01/21 00:56:10;;;;;;;48.78;19.95;;;;;;;;;;5032160;28;20098;-68
2023/01/21 00:58:36;;;;;;;45.60;21.15;;;;;;;;;;5031725;28;20045;-68
2023/01/21 01:01:04;;;;;;;43.42;20.25;;;;;;;;;;5015886;28;20044;-68
2023/01/21 01:03:30;;;;;;;45.42;20.73;;;;;;;;;;5032004;28;20609;-68
2023/01/21 01:06:00;;;;;;;43.15;18.98;;;;;;;;;;5031600;28;20056;-68
2023/01/21 01:08:26;;;;;;;43.80;19.63;;;;;;;;;;5032276;28;20128;-68
2023/01/21 01:10:53;;;;;;;42.20;19.15;;;;;;;;;;5018022;28;20041;-68
2023/01/21 01:13:19;;;;;;;50.03;20.70;;;;;;;;;;5035328;28;20060;-68
2023/01/21 01:15:46;;;;;;;46.42;21.35;;;;;;;;;;5036229;28;20490;-68
2023/01/21 01:18:12;;;;;;;43.65;20.30;;;;;;;;;;5036068;28;20045;-68
2023/01/21 01:20:42;;;;;;;43.03;18.83;;;;;;;;;;5035425;28;20056;-68
2023/01/21 01:23:08;;;;;;;43.92;20.02;;;;;;;;;;5035652;28;20644;-68
2023/01/21 01:25:36;;;;;;;44.08;20.25;;;;;;;;;;5035557;28;20430;-68
2023/01/21 01:28:03;;;;;;;45.58;20.45;;;;;;;;;;5019055;28;20037;-68
2023/01/21 01:30:29;;;;;;;49.10;21.33;;;;;;;;;;5035614;28;20048;-68
2023/01/21 01:32:55;;;;;;;53.97;21.92;;;;;;;;;;5035589;28;20480;-68
2023/01/21 01:35:21;;;;;;;49.03;21.83;;;;;;;;;;5035456;28;20037;-68
2023/01/21 01:37:47;;;;;;;47.63;21.73;;;;;;;;;;5018820;28;20033;-68
2023/01/21 01:40:13;;;;;;;54.55;22.77;;;;;;;;;;5035483;28;20136;-68
2023/01/21 01:42:39;;;;;;;48.92;20.83;;;;;;;;;;5035130;28;20044;-68
2023/01/21 01:45:06;;;;;;;50.15;21.52;;;;;;;;;;5018767;28;20070;-68
2023/01/21 01:47:36;;;;;;;44.13;20.90;;;;;;;;;;5035357;28;20056;-68
2023/01/21 01:50:03;;;;;;;49.10;20.83;;;;;;;;;;5035136;28;20048;-68
2023/01/21 01:52:30;;;;;;;47.53;20.83;;;;;;;;;;5035651;28;20037;-68
2023/01/21 01:54:57;;;;;;;48.53;21.40;;;;;;;;;;5035115;28;20128;-68
2023/01/21 01:57:26;;;;;;;45.55;19.48;;;;;;;;;;5034895;28;20143;-68
2023/01/21 01:59:52;;;;;;;47.10;20.35;;;;;;;;;;5034979;28;20403;-68
2023/01/21 02:02:19;;;;;;;46.13;21.20;;;;;;;;;;5035186;28;20045;-68
2023/01/21 02:04:47;;;;;;;45.72;20.30;;;;;;;;;;5017859;28;20048;-68
2023/01/21 02:07:13;;;;;;;47.55;20.85;;;;;;;;;;5034802;28;20045;-68
2023/01/21 02:09:40;;;;;;;47.13;20.80;;;;;;;;;;5018169;28;20052;-68
2023/01/21 02:12:06;;;;;;;53.88;21.77;;;;;;;;;;5034350;28;20048;-68
2023/01/21 02:14:41;;;;;;;51.78;21.10;;;;;;;;;;5034542;28;20065;-68
2023/01/21 02:17:13;;;;;;;49.65;20.40;;;;;;;;;;5034965;28;20537;-68
2023/01/21 02:19:40;;;;;;;;;;;;;;;;;;5034522;28;20534;-68
2023/01/21 02:22:15;;;;;;;54.45;20.42;;;;;;;;;;5017956;28;19936;-68
2023/01/21 02:25:00;;;;;;;50.35;20.25;;;;;;;;;;5034389;28;20166;-68
2023/01/21 02:27:32;;;;;;;59.60;21.38;;;;;;;;;;5014355;28;20049;-68
2023/01/21 02:29:58;;;;;;;54.95;23.23;;;;;;;;;;5014475;28;20045;-68
2023/01/21 02:32:27;;;;;;;55.00;22.20;;;;;;;;;;5014797;28;20090;-68
2023/01/21 02:35:12;;;;;;;54.13;22.00;;;;;;;;;;5014369;28;20038;-68
2023/01/21 02:37:44;;;;;;;53.13;22.60;;;;;;;;;;5014527;28;20056;-68
2023/01/21 02:40:13;;;;;;;46.83;20.83;;;;;;;;;;5014342;28;20038;-68
2023/01/21 02:42:54;;;;;;;48.70;20.67;;;;;;;;;;5013984;28;20132;-68
2023/01/21 02:45:33;;;;;;;51.75;20.08;;;;;;;;;;5014114;28;20118;-68
2023/01/21 02:48:07;;;;;;;53.92;23.00;;;;;;;;;;5014326;28;20124;-68
2023/01/21 02:50:40;;;;;;;49.35;19.50;;;;;;;;;;5013638;28;20095;-68
2023/01/21 02:53:06;;;;;;;53.25;22.17;;;;;;;;;;5014228;28;20087;-68
2023/01/21 02:55:36;;;;;;;58.65;22.02;;;;;;;;;;4997950;28;20045;-68
2023/01/21 02:58:05;;;;;;;57.17;21.05;;;;;;;;;;4997651;28;20045;-68
2023/01/21 03:00:51;;;;;;;49.28;20.00;;;;;;;;;;5014295;28;20636;-68
2023/01/21 03:03:33;;;;;;;53.35;20.98;;;;;;;;;;4964906;28;20670;-68
2023/01/21 03:06:20;;;;;;;54.30;21.40;;;;;;;;;;5013650;28;20056;-68
2023/01/21 03:09:12;;;;;;;49.83;20.60;;;;;;;;;;5034892;28;20395;-68
2023/01/21 03:11:40;;;;;;;48.75;19.52;;;;;;;;;;5003257;28;20107;-68
2023/01/21 03:17:18;;;;;;;47.05;19.95;;;;;;;;;;5033409;28;20048;-68
2023/01/21 03:19:44;;;;;;;49.75;20.05;;;;;;;;;;5032988;28;20055;-68
2023/01/21 03:22:15;;;;;;;52.35;20.23;;;;;;;;;;5033255;28;20037;-68
2023/01/21 03:24:43;;;;;;;52.05;19.63;;;;;;;;;;5033247;28;20036;-68
2023/01/21 03:27:13;;;;;;;50.42;20.25;;;;;;;;;;5033093;28;20121;-68
2023/01/21 03:29:42;;;;;;;43.80;18.88;;;;;;;;;;5050164;28;20045;-68
2023/01/21 03:32:10;;;;;;;45.50;19.60;;;;;;;;;;5032716;28;20124;-68
2023/01/21 03:34:40;;;;;;;48.83;20.00;;;;;;;;;;5032847;28;20133;-68
2023/01/21 03:37:07;;;;;;;48.17;19.98;;;;;;;;;;5032976;28;20060;-68
2023/01/21 03:39:52;;;;;;;49.67;19.95;;;;;;;;;;5033240;28;20619;-68
2023/01/21 03:42:19;;;;;;;47.47;19.83;;;;;;;;;;5032435;28;20049;-68
2023/01/21 03:44:45;;;;;;;45.55;19.75;;;;;;;;;;5032856;28;20044;-68
2023/01/21 03:47:19;;;;;;;49.35;19.45;;;;;;;;;;5032731;28;20037;-68
2023/01/21 03:49:58;;;;;;;47.17;19.38;;;;;;;;;;5032989;28;20121;-68
2023/01/21 03:52:24;;;;;;;49.65;21.05;;;;;;;;;;5033009;28;20108;-68
2023/01/21 03:54:51;;;;;;;53.55;20.83;;;;;;;;;;5032859;28;20041;-68
2023/01/21 03:57:17;;;;;;;49.92;20.73;;;;;;;;;;5032422;28;20144;-68
2023/01/21 03:59:43;;;;;;;50.13;21.33;;;;;;;;;;5032986;28;20044;-68
2023/01/21 04:02:09;;;;;;;54.83;22.10;;;;;;;;;;5032729;28;20128;-68
2023/01/21 04:04:35;;;;;;;45.33;19.67;;;;;;;;;;5032215;28;20045;-68
2023/01/21 04:07:02;;;;;;;47.10;20.15;;;;;;;;;;5032574;28;20061;-68
2023/01/21 04:09:28;;;;;;;49.83;21.30;;;;;;;;;;5049174;28;20045;-68
2023/01/21 04:11:54;;;;;;;50.28;20.55;;;;;;;;;;5032286;28;20061;-68
2023/01/21 04:14:20;;;;;;;47.17;20.63;;;;;;;;;;5015782;28;20435;-68
2023/01/21 04:16:46;;;;;;;50.75;21.92;;;;;;;;;;5032614;28;20045;-68
2023/01/21 04:19:12;;;;;;;47.97;19.75;;;;;;;;;;5031982;28;20052;-68
2023/01/21 04:21:38;;;;;;;48.40;20.55;;;;;;;;;;5032643;28;20045;-68
2023/01/21 04:24:04;;;;;;;46.90;20.08;;;;;;;;;;5032393;28;20044;-68
2023/01/21 04:26:30;;;;;;;48.33;19.88;;;;;;;;;;5031840;28;20041;-68
2023/01/21 04:28:56;;;;;;;43.70;19.60;;;;;;;;;;5032397;28;20037;-68
2023/01/21 04:31:22;;;;;;;45.03;19.60;;;;;;;;;;5032612;28;20045;-68
2023/01/21 04:33:48;;;;;;;51.15;19.67;;;;;;;;;;5031873;28;20497;-68
2023/01/21 04:36:14;;;;;;;45.90;19.80;;;;;;;;;;5032399;28;20040;-68
2023/01/21 04:38:40;;;;;;;43.03;19.77;;;;;;;;;;5015733;28;20116;-68
2023/01/21 04:41:07;;;;;;;47.05;20.25;;;;;;;;;;5031987;28;20049;-68
2023/01/21 04:43:33;;;;;;;44.15;18.60;;;;;;;;;;5032217;28;20048;-68
2023/01/21 04:45:59;;;;;;;45.50;19.67;;;;;;;;;;5036724;28;20467;-68
2023/01/21 04:48:25;;;;;;;48.28;20.73;;;;;;;;;;5036057;28;20040;-68
2023/01/21 04:50:51;;;;;;;48.30;19.67;;;;;;;;;;5036673;28;20074;-68
2023/01/21 04:53:17;;;;;;;50.22;20.35;;;;;;;;;;5036236;28;20037;-68
2023/01/21 04:55:43;;;;;;;51.63;20.35;;;;;;;;;;5036089;28;20040;-68
2023/01/21 04:58:09;;;;;;;43.42;19.20;;;;;;;;;;5036130;28;20040;-68
2023/01/21 05:00:35;;;;;;;45.97;19.38;;;;;;;;;;5019800;28;20626;-68
2023/01/21 05:03:01;;;;;;;43.83;18.95;;;;;;;;;;5035577;28;20064;-68
2023/01/21 05:05:27;;;;;;;47.00;19.70;;;;;;;;;;5036032;28;20445;-68
2023/01/21 05:07:53;;;;;;;47.92;19.58;;;;;;;;;;5036325;28;20678;-68
2023/01/21 05:10:19;;;;;;;45.38;19.83;;;;;;;;;;5019313;28;20056;-68
2023/01/21 05:12:47;;;;;;;42.42;19.00;;;;;;;;;;5035676;28;20051;-68
2023/01/21 05:15:13;;;;;;;44.75;20.00;;;;;;;;;;5019237;28;20403;-68
2023/01/21 05:17:39;;;;;;;46.67;20.67;;;;;;;;;;5035732;28;20045;-68
2023/01/21 05:20:05;;;;;;;48.97;19.38;;;;;;;;;;5035750;28;20057;-68
2023/01/21 05:22:31;;;;;;;43.67;18.48;;;;;;;;;;5035695;28;20045;-68
2023/01/21 05:24:59;;;;;;;40.88;19.02;;;;;;;;;;5035448;28;20145;-68
2023/01/21 05:27:25;;;;;;;46.67;18.98;;;;;;;;;;5015852;28;20499;-68
2023/01/21 05:29:51;;;;;;;42.35;19.42;;;;;;;;;;5015932;28;20072;-68
2023/01/21 05:32:18;;;;;;;47.08;19.33;;;;;;;;;;5015517;28;20045;-68
2023/01/21 05:34:44;;;;;;;49.80;20.05;;;;;;;;;;5015662;28;20094;-68
2023/01/21 05:37:10;;;;;;;45.03;18.92;;;;;;;;;;4999558;28;20046;-68
2023/01/21 05:39:36;;;;;;;47.15;18.75;;;;;;;;;;5015517;28;20080;-68
2023/01/21 05:42:02;;;;;;;50.63;20.35;;;;;;;;;;5015449;28;20404;-68
2023/01/21 05:44:28;;;;;;;45.50;18.65;;;;;;;;;;5015382;28;20049;-68
2023/01/21 05:46:54;;;;;;;50.88;20.00;;;;;;;;;;5015285;28;20037;-68
2023/01/21 05:49:20;;;;;;;48.42;19.08;;;;;;;;;;5015384;28;20038;-68
2023/01/21 05:51:46;;;;;;;44.55;18.75;;;;;;;;;;5015312;28;20049;-68
2023/01/21 05:54:12;;;;;;;49.50;19.55;;;;;;;;;;5015256;28;20468;-68
2023/01/21 05:56:38;;;;;;;46.65;18.70;;;;;;;;;;4998118;28;20670;-68
2023/01/21 05:59:04;;;;;;;50.00;20.33;;;;;;;;;;5015307;28;20044;-68
2023/01/21 06:01:30;;;;;;;45.63;20.40;;;;;;;;;;5015218;28;20742;-68
2023/01/21 06:03:56;;;;;;;42.13;18.55;;;;;;;;;;5014975;28;20049;-68
2023/01/21 06:06:22;;;;;;;49.72;20.15;;;;;;;;;;5014943;28;20061;-68
2023/01/21 06:08:49;;;;;;;53.75;21.23;;;;;;;;;;5018235;28;20107;-68
2023/01/21 06:11:15;;;;;;;50.63;20.40;;;;;;;;;;5034926;28;20048;-68
2023/01/21 06:13:41;;;;;;;48.72;19.50;;;;;;;;;;5034774;28;20041;-68
2023/01/21 06:16:07;;;;;;;52.80;20.95;;;;;;;;;;5052333;28;20041;-68
2023/01/21 06:18:33;;;;;;;47.78;20.80;;;;;;;;;;5034751;28;20063;-68
2023/01/21 06:20:59;;;;;;;48.05;21.27;;;;;;;;;;5034744;28;20057;-68
2023/01/21 06:23:26;;;;;;;51.20;20.88;;;;;;;;;;5034475;28;20128;-68
2023/01/21 06:25:52;;;;;;;50.75;19.40;;;;;;;;;;5034489;28;20041;-68
2023/01/21 06:28:18;;;;;;;54.78;21.85;;;;;;;;;;5034359;28;20090;-68
2023/01/21 06:30:44;;;;;;;52.00;21.00;;;;;;;;;;5034480;28;20041;-68
2023/01/21 06:33:10;;;;;;;47.33;20.30;;;;;;;;;;5034405;28;20040;-68
2023/01/21 06:35:36;;;;;;;45.83;19.02;;;;;;;;;;5018110;28;20124;-68
2023/01/21 06:38:03;;;;;;;43.42;18.95;;;;;;;;;;5034042;28;20041;-68
2023/01/21 06:40:29;;;;;;;45.95;20.05;;;;;;;;;;5034459;28;20041;-68
2023/01/21 06:42:55;;;;;;;40.88;18.30;;;;;;;;;;5034231;28;20541;-68
2023/01/21 06:45:21;;;;;;;44.97;18.05;;;;;;;;;;5033928;28;20398;-68
2023/01/21 06:47:47;;;;;;;44.50;18.50;;;;;;;;;;5034190;28;20040;-68
2023/01/21 06:50:14;;;;;;;47.13;20.33;;;;;;;;;;5034398;28;20064;-68
2023/01/21 06:52:44;;;;;;;44.45;19.40;;;;;;;;;;5033668;28;20041;-68
2023/01/21 06:55:11;;;;;;;44.22;19.23;;;;;;;;;;5034324;28;20491;-68
2023/01/21 06:57:37;;;;;;;44.33;19.77;;;;;;;;;;5017548;28;20040;-68
2023/01/21 07:00:04;;;;;;;49.85;20.50;;;;;;;;;;5033607;28;20450;-68
2023/01/21 07:02:30;;;;;;;46.25;20.35;;;;;;;;;;5033536;28;20084;-68
2023/01/21 07:04:56;;;;;;;49.72;21.30;;;;;;;;;;5033986;28;20431;-68
2023/01/21 07:07:22;;;;;;;44.35;20.13;;;;;;;;;;5033602;28;20132;-68
2023/01/21 07:09:48;;;;;;;49.53;21.13;;;;;;;;;;5033361;28;20075;-68
2023/01/21 07:12:14;;;;;;;45.35;19.60;;;;;;;;;;5017349;28;20095;-68
2023/01/21 07:14:40;;;;;;;48.15;20.33;;;;;;;;;;5033282;28;20423;-68
2023/01/21 07:17:06;;;;;;;48.35;21.23;;;;;;;;;;5017150;28;20468;-68
2023/01/21 07:19:32;;;;;;;48.75;20.17;;;;;;;;;;5033281;28;20095;-68
2023/01/21 07:21:58;;;;;;;51.60;21.00;;;;;;;;;;5033624;28;20491;-68
2023/01/21 07:24:24;;;;;;;48.75;19.92;;;;;;;;;;5032852;28;20047;-68
2023/01/21 07:26:50;;;;;;;48.92;20.15;;;;;;;;;;5033268;28;20041;-68
2023/01/21 07:29:17;;;;;;;46.65;20.67;;;;;;;;;;5033307;28;20122;-68
2023/01/21 07:31:43;;;;;;;52.60;21.90;;;;;;;;;;5032978;28;20093;-68
2023/01/21 07:34:09;;;;;;;45.42;20.13;;;;;;;;;;5033321;28;20483;-68
2023/01/21 07:36:35;;;;;;;47.30;20.63;;;;;;;;;;5033402;28;20123;-68
2023/01/21 07:39:01;;;;;;;45.60;20.27;;;;;;;;;;5032755;28;20076;-68
2023/01/21 07:41:27;;;;;;;44.75;20.15;;;;;;;;;;5033545;28;20459;-68
2023/01/21 07:43:53;;;;;;;46.30;20.48;;;;;;;;;;5016556;28;20045;-68
2023/01/21 07:46:20;;;;;;;43.13;19.05;;;;;;;;;;5032726;28;20049;-68
2023/01/21 07:48:50;;;;;;;49.78;21.23;;;;;;;;;;5032880;28;20045;-68
2023/01/21 07:51:17;;;;;;;46.13;20.05;;;;;;;;;;5033277;28;20045;-68
2023/01/21 07:53:43;;;;;;;49.00;20.80;;;;;;;;;;5032490;28;20126;-68
2023/01/21 07:56:09;;;;;;;47.50;20.48;;;;;;;;;;5032802;28;20041;-68
2023/01/21 07:58:35;;;;;;;47.55;20.92;;;;;;;;;;5033114;28;20118;-68
2023/01/21 08:01:06;;;;;;;54.75;20.88;;;;;;;;;;5032307;28;20072;-68
2023/01/21 08:03:33;;;;;;;50.42;21.58;;;;;;;;;;5016394;28;20040;-68
2023/01/21 08:05:59;;;;;;;50.55;20.48;;;;;;;;;;5032525;28;20094;-68
2023/01/21 08:08:25;;;;;;;51.25;22.20;;;;;;;;;;5032260;28;20508;-69
2023/01/21 08:10:52;;;;;;;53.38;22.65;;;;;;;;;;5032554;28;20039;-68
2023/01/21 08:13:18;;;;;;;55.13;22.58;;;;;;;;;;5032700;28;20149;-68
2023/01/21 08:15:45;;;;;;;51.00;21.38;;;;;;;;;;5032433;28;20495;-68
2023/01/21 08:18:11;;;;;;;50.08;20.15;;;;;;;;;;5032567;28;20036;-68
2023/01/21 08:20:37;;;;;;;52.42;23.48;;;;;;;;;;5031961;28;20057;-68
2023/01/21 08:23:03;;;;;;;56.67;22.77;;;;;;;;;;5032312;28;20155;-68
2023/01/21 08:25:29;;;;;;;49.80;22.13;;;;;;;;;;5032482;28;20048;-68
2023/01/21 08:27:55;;;;;;;53.90;22.75;;;;;;;;;;5032574;28;20040;-68
2023/01/21 08:30:21;;;;;;;56.80;22.67;;;;;;;;;;5015352;28;20443;-68
2023/01/21 08:32:48;;;;;;;61.00;24.02;;;;;;;;;;5032533;28;20029;-68
2023/01/21 08:35:14;;;;;;;53.63;23.65;;;;;;;;;;5032243;28;20048;-68
2023/01/21 08:37:40;;;;;;;52.42;23.60;;;;;;;;;;5015629;28;20098;-68
2023/01/21 08:40:07;;;;;;;59.65;22.38;;;;;;;;;;5032430;28;20052;-69
2023/01/21 08:42:33;;;;;;;59.60;24.52;;;;;;;;;;5015604;28;20047;-68
2023/01/21 08:44:59;;;;;;;57.13;24.38;;;;;;;;;;5031879;28;20661;-68
2023/01/21 08:47:25;;;;;;;54.90;22.75;;;;;;;;;;5032234;28;20048;-68
2023/01/21 08:49:51;;;;;;;56.78;23.83;;;;;;;;;;5032670;28;20052;-68
2023/01/21 08:52:17;;;;;;;57.20;24.15;;;;;;;;;;5015492;28;20068;-68
2023/01/21 08:54:43;;;;;;;61.40;24.50;;;;;;;;;;5015727;28;20029;-68
2023/01/21 08:57:10;;;;;;;59.80;23.95;;;;;;;;;;5015789;28;20122;-68
2023/01/21 08:59:36;;;;;;;54.05;23.98;;;;;;;;;;5031814;28;20044;-68
2023/01/21 09:02:02;;;;;;;53.40;23.08;;;;;;;;;;5032119;28;20087;-68
2023/01/21 09:04:28;;;;;;;55.63;23.80;;;;;;;;;;5031945;28;20045;-68
2023/01/21 09:06:54;;;;;;;58.10;24.27;;;;;;;;;;5031594;28;20491;-68
2023/01/21 09:09:20;;;;;;;50.95;23.10;;;;;;;;;;5049780;28;20033;-68
2023/01/21 09:11:46;;;;;;;59.33;23.98;;;;;;;;;;5015537;28;20384;-68
2023/01/21 09:14:12;;;;;;;59.25;23.15;;;;;;;;;;5015058;28;20044;-68
2023/01/21 09:16:38;;;;;;;63.25;25.88;;;;;;;;;;5031917;28;20107;-68
2023/01/21 09:19:04;;;;;;;62.90;26.05;;;;;;;;;;5032005;28;20047;-68
2023/01/21 09:21:33;;;;;;;57.15;24.98;;;;;;;;;;5031517;28;20041;-68
2023/01/21 09:23:59;;;;;;;55.70;24.98;;;;;;;;;;5031795;28;20098;-68
2023/01/21 09:26:25;;;;;;;56.90;24.88;;;;;;;;;;5031798;28;20072;-68
2023/01/21 09:28:53;;;;;;;54.22;23.63;;;;;;;;;;5031441;28;20094;-68
2023/01/21 09:31:20;;;;;;;55.58;24.27;;;;;;;;;;5016489;28;20368;-68
2023/01/21 09:33:47;;;;;;;56.85;25.48;;;;;;;;;;5035425;28;20049;-68
2023/01/21 09:36:15;;;;;;;56.58;23.88;;;;;;;;;;5035200;28;20063;-68
2023/01/21 09:38:45;;;;;;;50.58;22.05;;;;;;;;;;5035438;28;20052;-68
2023/01/21 09:41:23;;;;;;;51.00;23.92;;;;;;;;;;5035747;28;20052;-68
2023/01/21 09:43:58;;;;;;;54.13;23.48;;;;;;;;;;5034605;28;20056;-68
2023/01/21 09:46:44;;;;;;;49.22;21.80;;;;;;;;;;5035397;28;20486;-68
2023/01/21 09:49:19;;;;;;;52.17;22.70;;;;;;;;;;5021778;28;20057;-68
2023/01/21 09:51:50;;;;;;;53.50;23.67;;;;;;;;;;5018983;28;20554;-68
2023/01/21 09:54:35;;;;;;;49.92;23.15;;;;;;;;;;5035307;28;20080;-68
2023/01/21 09:57:01;;;;;;;55.92;23.55;;;;;;;;;;5035068;28;20052;-68
2023/01/21 09:59:32;;;;;;;47.63;22.27;;;;;;;;;;5018268;28;20083;-68
2023/01/21 10:01:59;;;;;;;49.42;22.75;;;;;;;;;;5035035;28;20141;-68
2023/01/21 10:04:49;;;;;;;49.70;22.23;;;;;;;;;;5034804;28;20106;-68
2023/01/21 10:07:21;;;;;;;51.70;22.80;;;;;;;;;;5034576;28;20076;-68
2023/01/21 10:09:57;;;;;;;49.05;23.13;;;;;;;;;;5034834;28;20091;-68
2023/01/21 10:12:47;;;;;;;48.13;22.40;;;;;;;;;;5035232;28;20037;-68
2023/01/21 10:15:21;;;;;;;50.95;21.48;;;;;;;;;;5018492;28;20052;-68
2023/01/21 10:17:53;;;;;;;51.28;23.38;;;;;;;;;;5034807;28;20044;-68
2023/01/21 10:20:31;;;;;;;45.42;21.90;;;;;;;;;;5034085;28;20107;-68
2023/01/21 10:23:01;;;;;;;53.20;22.75;;;;;;;;;;5018354;28;20167;-68
2023/01/21 10:25:31;;;;;;;50.22;22.83;;;;;;;;;;5034715;28;20767;-68
2023/01/21 10:28:12;;;;;;;44.70;22.10;;;;;;;;;;5034275;28;20078;-68
2023/01/21 10:30:39;;;;;;;46.67;22.25;;;;;;;;;;5034727;28;20533;-68
2023/01/21 10:33:06;;;;;;;51.92;23.02;;;;;;;;;;5034445;28;20102;-68
2023/01/21 10:35:56;;;;;;;49.15;22.17;;;;;;;;;;5034106;28;20087;-68
2023/01/21 10:38:28;;;;;;;48.55;23.23;;;;;;;;;;5026581;28;20045;-68
2023/01/21 10:41:11;;;;;;;45.70;22.33;;;;;;;;;;5034766;28;20084;-68
2023/01/21 10:44:00;;;;;;;52.70;23.08;;;;;;;;;;5033510;28;20045;-68
2023/01/21 10:46:26;;;;;;;50.00;22.65;;;;;;;;;;5026370;28;20053;-68
2023/01/21 10:48:57;;;;;;;50.55;22.85;;;;;;;;;;5034273;28;20045;-68
2023/01/21 10:51:23;;;;;;;56.95;23.63;;;;;;;;;;5033715;28;20076;-68
2023/01/21 10:53:55;;;;;;;48.80;23.80;;;;;;;;;;5034191;28;20475;-68
2023/01/21 10:56:34;;;;;;;52.55;24.58;;;;;;;;;;5034036;28;20053;-68
2023/01/21 10:59:03;;;;;;;46.75;22.95;;;;;;;;;;5033644;28;20076;-68
2023/01/21 11:01:32;;;;;;;49.85;22.38;;;;;;;;;;5034155;28;20095;-68
2023/01/21 11:04:12;;;;;;;45.60;22.13;;;;;;;;;;5033781;28;20049;-68
2023/01/21 11:06:39;;;;;;;49.50;23.00;;;;;;;;;;5033344;28;20127;-68
2023/01/21 11:09:06;;;;;;;49.78;23.80;;;;;;;;;;5033732;28;20124;-68
2023/01/21 11:11:34;;;;;;;46.95;21.70;;;;;;;;;;5033600;28;20052;-68
2023/01/21 11:14:00;;;;;;;48.17;23.05;;;;;;;;;;5033462;28;20045;-68
2023/01/21 11:16:34;;;;;;;44.33;22.05;;;;;;;;;;5017207;28;20044;-68
2023/01/21 11:19:01;;;;;;;46.28;22.45;;;;;;;;;;5033310;28;20446;-68
2023/01/21 11:21:27;;;;;;;46.40;22.52;;;;;;;;;;5033241;28;20053;-68
2023/01/21 11:23:57;;;;;;;47.67;21.35;;;;;;;;;;5033843;28;20553;-68
2023/01/21 11:26:27;;;;;;;43.72;21.02;;;;;;;;;;5016706;28;20049;-68
2023/01/21 11:29:12;;;;;;;45.17;21.95;;;;;;;;;;5033758;28;20051;-68
2023/01/21 11:31:39;;;;;;;42.20;21.88;;;;;;;;;;5033306;28;20043;-68
2023/01/21 11:34:06;;;;;;;42.60;21.17;;;;;;;;;;5033258;28;20041;-68
2023/01/21 11:36:33;;;;;;;42.35;20.30;;;;;;;;;;5033183;28;20040;-68
2023/01/21 11:39:00;;;;;;;38.58;20.80;;;;;;;;;;5033144;28;20557;-68
2023/01/21 11:41:27;;;;;;;39.92;20.58;;;;;;;;;;5032857;28;20585;-68
2023/01/21 11:43:54;;;;;;;42.47;21.20;;;;;;;;;;5033156;28;20628;-69
2023/01/21 11:46:26;;;;;;;41.60;21.02;;;;;;;;;;5032983;28;20047;-69
2023/01/21 11:48:57;;;;;;;40.05;21.17;;;;;;;;;;5032860;28;20120;-69
2023/01/21 11:51:23;;;;;;;40.08;21.15;;;;;;;;;;5032875;28;20043;-69
2023/01/21 11:54:05;;;;;;;48.08;23.38;;;;;;;;;;5032159;28;20037;-69
2023/01/21 11:56:31;;;;;;;40.13;19.98;;;;;;;;;;5032411;28;20041;-69
2023/01/21 11:58:57;;;;;;;35.90;19.42;;;;;;;;;;5033068;28;20072;-69
2023/01/21 12:01:23;;;;;;;35.83;20.00;;;;;;;;;;5032909;28;20048;-69
2023/01/21 12:03:54;;;;;;;33.00;18.55;;;;;;;;;;5032195;28;20051;-69
2023/01/21 12:06:22;;;;;;;35.10;18.75;;;;;;;;;;5050565;28;20391;-69
2023/01/21 12:08:52;;;;;;;38.55;19.73;;;;;;;;;;5032855;28;20040;-69
2023/01/21 12:11:20;;;;;;;37.20;20.58;;;;;;;;;;5032264;28;20120;-69
2023/01/21 12:13:46;;;;;;;38.00;20.55;;;;;;;;;;5012896;28;20049;-69
2023/01/21 12:16:31;;;;;;;36.15;19.88;;;;;;;;;;5012907;28;20524;-69
2023/01/21 12:19:03;;;;;;;37.75;20.10;;;;;;;;;;5012851;28;20045;-69
2023/01/21 12:21:48;;;;;;;36.78;20.42;;;;;;;;;;4996572;28;20049;-69
2023/01/21 12:24:14;;;;;;;37.45;19.73;;;;;;;;;;5012669;28;20049;-69
2023/01/21 12:26:49;;;;;;;36.75;19.58;;;;;;;;;;5009530;28;20055;-69
2023/01/21 12:29:25;;;;;;;35.55;18.95;;;;;;;;;;5032434;28;20124;-69
2023/01/21 12:31:55;;;;;;;26.77;14.82;;;;;;;;;;5032597;28;20032;-69
2023/01/21 12:34:33;;;;;;;26.48;15.40;;;;;;;;;;5031939;28;20658;-69
2023/01/21 12:37:01;;;;;;;26.55;15.65;;;;;;;;;;5032667;28;20083;-69
2023/01/21 12:39:27;;;;;;;27.05;15.05;;;;;;;;;;5032442;28;20063;-69
2023/01/21 12:42:01;;;;;;;27.67;14.88;;;;;;;;;;5032226;28;20103;-69
2023/01/21 12:44:42;;;;;;;27.95;15.40;;;;;;;;;;5015907;28;20964;-69
2023/01/21 12:47:28;;;;;;;27.38;14.50;;;;;;;;;;5015804;28;20037;-69
2023/01/21 12:50:20;;;;;;;27.80;15.43;;;;;;;;;;5031957;28;20044;-69
2023/01/21 12:52:58;;;;;;;25.00;14.85;;;;;;;;;;5028587;28;20056;-69
2023/01/21 12:55:24;;;;;;;23.95;13.70;;;;;;;;;;5032211;28;20041;-69
2023/01/21 12:58:02;;;;;;;20.77;12.20;;;;;;;;;;5032230;28;20044;-69
2023/01/21 13:00:31;;;;;;;22.23;12.20;;;;;;;;;;5032211;28;20041;-69
2023/01/21 13:03:06;;;;;;;19.77;12.52;;;;;;;;;;5031663;28;20060;-69
2023/01/21 13:05:36;;;;;;;21.80;12.13;;;;;;;;;;5033871;28;20033;-69
2023/01/21 13:08:22;;;;;;;19.40;11.32;;;;;;;;;;5035981;28;20120;-69
2023/01/21 13:11:00;;;;;;;18.23;10.98;;;;;;;;;;5015815;28;20139;-69
2023/01/21 13:13:31;;;;;;;16.00;11.10;;;;;;;;;;5016817;28;20438;-69
2023/01/21 13:16:00;;;;;;;19.45;11.32;;;;;;;;;;5036257;28;20044;-69
2023/01/21 13:18:32;;;;;;;18.67;10.80;;;;;;;;;;5035954;28;20455;-69
2023/01/21 13:21:00;;;;;;;19.90;11.88;;;;;;;;;;5035881;28;20056;-69
2023/01/21 13:23:32;;;;;;;18.23;10.80;;;;;;;;;;5035741;28;20171;-69
2023/01/21 13:26:17;;;;;;;21.92;10.88;;;;;;;;;;5035094;28;20051;-69
2023/01/21 13:28:43;;;;;;;16.92;9.65;;;;;;;;;;5035888;28;20041;-69
2023/01/21 13:31:19;;;;;;;14.02;9.23;;;;;;;;;;5035718;28;20126;-69
2023/01/21 13:33:51;;;;;;;13.27;8.23;;;;;;;;;;5035093;28;20040;-69
2023/01/21 13:36:36;;;;;;;14.25;8.18;;;;;;;;;;5035828;28;20060;-69
2023/01/21 13:39:04;;;;;;;12.60;7.38;;;;;;;;;;5035760;28;20135;-69
2023/01/21 13:41:53;;;;;;;12.60;7.43;;;;;;;;;;5035483;28;20045;-69
2023/01/21 13:44:38;;;;;;;13.35;7.15;;;;;;;;;;5035547;28;20098;-69
2023/01/21 13:47:07;;;;;;;11.27;6.90;;;;;;;;;;5035171;28;20045;-69
2023/01/21 13:49:41;;;;;;;7.97;5.40;;;;;;;;;;5035124;28;20090;-69
2023/01/21 13:52:11;;;;;;;8.63;5.20;;;;;;;;;;5035663;28;20500;-69
2023/01/21 13:54:41;;;;;;;9.45;6.40;;;;;;;;;;5034531;28;20040;-69
2023/01/21 13:57:14;;;;;;;9.35;6.15;;;;;;;;;;5035272;28;20045;-69
2023/01/21 13:59:52;;;;;;;9.77;6.18;;;;;;;;;;5035326;28;20136;-69
2023/01/21 14:02:35;;;;;;;11.80;6.90;;;;;;;;;;5034826;28;20040;-69
2023/01/21 14:05:10;;;;;;;9.38;6.72;;;;;;;;;;5035075;28;20571;-69
2023/01/21 14:07:42;;;;;;;11.73;6.60;;;;;;;;;;5035082;28;20057;-69
2023/01/21 14:10:31;;;;;;;9.27;6.50;;;;;;;;;;5034777;28;20430;-69
2023/01/21 14:13:00;;;;;;;9.15;6.18;;;;;;;;;;5034821;28;20052;-69
2023/01/21 14:15:36;;;;;;;9.50;6.35;;;;;;;;;;5034832;28;20126;-69
2023/01/21 14:18:12;;;;;;;9.25;6.40;;;;;;;;;;5033833;28;20048;-69
2023/01/21 14:20:44;;;;;;;8.60;5.82;;;;;;;;;;5034381;28;20121;-69
2023/01/21 14:23:19;;;;;;;8.55;5.55;;;;;;;;;;5034856;28;20044;-69
2023/01/21 14:25:52;;;;;;;9.25;5.07;;;;;;;;;;5037145;28;20052;-69
2023/01/21 14:28:37;;;;;;;8.48;5.22;;;;;;;;;;5018158;28;20036;-69
2023/01/21 14:31:06;;;;;;;8.20;5.38;;;;;;;;;;5034691;28;20045;-69
2023/01/21 14:33:38;;;;;;;9.90;5.60;;;;;;;;;;5034516;28;20094;-69